Search
FMA V3 P2006T
VID_20230630_191212_00_003_2023-08-06_18-26-47_screenshot
Cover Photo 2024 - 1
Search

Aerodrome Weather

LMML - Malta International Airport

21 April, 6:15 PM
39 minutes ago
VFR
Flight Category
1011
Air Pressure
50°/6kts
Wind Speed
16°C
Temperature
11°C
Dew Point
9.7 km
Visibility
LMML 211815Z 05006KT 020V080 9999 FEW021 16/11 Q1011 NOSIG

Live Runway Winds

kt 0 5 10 20 30 40 60
23

6 kt Tailwind

No Crosswind

05

6 kt Headwind

No Crosswind

13

1 kt Headwind

6 kt Left Crosswind

31

1 kt Tailwind

6 kt Right Crosswind

Civil Twilight

Select Date:

Sunrise (UTC)

Night End
Sunrise

Sunset (UTC)

Sunset
Night Start
What is Civil Twilight?

Defined by how far the sun is below the horizon, when the geometric center of the sun is 6 degrees below the horizon.

Therefore morning civil twilight begins when the geometric center of the sun is 6 degrees below the horizon, and ends at sunrise.

Evening civil twilight begins at sunset, and ends when the geometric center of the sun is 6 degrees below the horizon.

For LMML, such data has been supplied by the U.S. Naval Observatory in colaboration with Transport Malta.

Full list of tables can be found here

Density Alt: 558ft (MSL)

Density Alt: 558ft
LMML: 297ft
261ft
Temperature: 16°C
QNH: 1011hPa

Aerodrome Weather

LICB - Comiso Airport

21 April, 6:20 PM
34 minutes ago
VFR
Flight Category
1012
Air Pressure
120°/4kts
Wind Speed
15°C
Temperature
4°C
Dew Point
9.7 km
Visibility
LICB 211820Z AUTO 12004KT 090V160 9999 FEW170/// 15/04 Q1012

Live Runway Winds

kt 0 5 10 20 30 40 60
23

1 kt Tailwind

4 kt Left Crosswind

05

1 kt Headwind

4 kt Right Crosswind

Civil Twilight

Sunrise (UTC)

Night End
Sunrise

Sunset (UTC)

Sunset
Night Start
What is Civil Twilight?

Defined by how far the sun is below the horizon, when the geometric center of the sun is 6 degrees below the horizon.

Therefore morning civil twilight begins when the geometric center of the sun is 6 degrees below the horizon, and ends at sunrise.

Evening civil twilight begins at sunset, and ends when the geometric center of the sun is 6 degrees below the horizon.

For LMML, such data has been supplied by the U.S. Naval Observatory in colaboration with Transport Malta.

Full list of tables can be found here

Density Alt: 867ft (MSL)

Density Alt: 867ft
LICB: 756ft
111ft
Temperature: 15°C
QNH: 1012hPa

Aerodrome Weather

LICC - Catania-Fontanarossa Airport

21 April, 6:20 PM
34 minutes ago
VFR
Flight Category
1012
Air Pressure
50°/13kts
Wind Speed
17°C
Temperature
10°C
Dew Point
9.7 km
Visibility
LICC 211820Z 05013KT CAVOK 17/10 Q1012

Live Runway Winds

kt 0 5 10 20 30 40 60
08

11 kt Headwind

7 kt Left Crosswind

26

11 kt Tailwind

7 kt Right Crosswind

Civil Twilight

Sunrise (UTC)

Night End
Sunrise

Sunset (UTC)

Sunset
Night Start
What is Civil Twilight?

Defined by how far the sun is below the horizon, when the geometric center of the sun is 6 degrees below the horizon.

Therefore morning civil twilight begins when the geometric center of the sun is 6 degrees below the horizon, and ends at sunrise.

Evening civil twilight begins at sunset, and ends when the geometric center of the sun is 6 degrees below the horizon.

For LMML, such data has been supplied by the U.S. Naval Observatory in colaboration with Transport Malta.

Full list of tables can be found here

Density Alt: 390ft (MSL)

Density Alt: 390ft
LICC: 39ft
351ft
Temperature: 17°C
QNH: 1012hPa

Aerodrome Weather

LICR - Reggio Calabria Airport

21 April, 6:20 PM
34 minutes ago
VFR
Flight Category
1013
Air Pressure
340°/5kts
Wind Speed
15°C
Temperature
7°C
Dew Point
9.7 km
Visibility
LICR 211820Z AUTO 34005KT 300V010 9999 BKN200/// 15/07 Q1013

Live Runway Winds

kt 0 5 10 20 30 40 60
15

5 kt Tailwind

1 kt Left Crosswind

33

5 kt Headwind

1 kt Right Crosswind

11

3 kt Tailwind

4 kt Left Crosswind

29

3 kt Headwind

4 kt Right Crosswind

Civil Twilight

Sunrise (UTC)

Night End
Sunrise

Sunset (UTC)

Sunset
Night Start
What is Civil Twilight?

Defined by how far the sun is below the horizon, when the geometric center of the sun is 6 degrees below the horizon.

Therefore morning civil twilight begins when the geometric center of the sun is 6 degrees below the horizon, and ends at sunrise.

Evening civil twilight begins at sunset, and ends when the geometric center of the sun is 6 degrees below the horizon.

For LMML, such data has been supplied by the U.S. Naval Observatory in colaboration with Transport Malta.

Full list of tables can be found here

Density Alt: 177ft (MSL)

Density Alt: 177ft
LICR: 96ft
81ft
Temperature: 15°C
QNH: 1013hPa

Flying Malta App V3

Welcome to the Flying Malta App, a web-app dedicated to providing useful information for pilots and aviation enthusiasts both for Malta and it’s neighboring countries.. Whether you’re a local pilot, visiting from abroad, or just interested in learning more about aviation in Malta, Flying Malta App offers a variety of resources and tools to help you navigate the skies safely and efficiently. From the latest weather updates and airspace information to airport details and flight planning tools, we’ve got you covered. So take a look around and discover all that Flying Malta App has to offer.